Time;durP1;ratioP1;P1;durP2;ratioP2;P2;SDS_P1;SDS_P2;PMS_P1;PMS_P2;Temp;Humidity;BMP_temperature;BMP_pressure;BME280_temperature;BME280_humidity;BME280_pressure;Samples;Min_cycle;Max_cycle;Signal;HPM_P1;HPM_P2
2021/03/25 00:00:41;;;;;;;;;;;12.40;59.20;;;;;;2089140;28;747;-49
2021/03/25 00:02:00;;;;;;;;;;;12.50;59.30;;;;;;2077637;28;1330;-50
2021/03/25 00:03:19;;;;;;;;;;;12.50;59.30;;;;;;2075016;28;1610;-50
2021/03/25 00:04:38;;;;;;;;;;;12.50;59.30;;;;;;2080105;28;1890;-51
2021/03/25 00:05:58;;;;;;;;;;;12.50;59.40;;;;;;2085685;28;748;-51
2021/03/25 00:07:17;;;;;;;;;;;12.40;59.20;;;;;;2089433;28;713;-50
2021/03/25 00:08:36;;;;;;;;;;;12.50;59.90;;;;;;2089788;28;722;-50
2021/03/25 00:09:55;;;;;;;;;;;12.50;59.30;;;;;;2092441;28;1023;-49
2021/03/25 00:11:14;;;;;;;;;;;12.40;59.70;;;;;;2091683;28;1161;-50
2021/03/25 00:12:33;;;;;;;;;;;12.40;59.80;;;;;;2080893;28;785;-50
2021/03/25 00:13:53;;;;;;;;;;;12.40;59.30;;;;;;2081215;28;924;-51
2021/03/25 00:15:12;;;;;;;;;;;12.40;59.30;;;;;;2087099;28;1772;-48
2021/03/25 00:16:32;;;;;;;;;;;12.40;59.30;;;;;;2089156;28;722;-52
2021/03/25 00:17:51;;;;;;;;;;;12.40;59.30;;;;;;2078018;28;930;-51
2021/03/25 00:19:10;;;;;;;;;;;12.40;59.30;;;;;;2086461;28;724;-50
2021/03/25 00:20:30;;;;;;;;;;;12.40;59.30;;;;;;2089493;28;744;-52
2021/03/25 00:21:49;;;;;;;;;;;12.40;59.30;;;;;;2089838;28;1393;-50
2021/03/25 00:23:08;;;;;;;;;;;12.40;59.30;;;;;;2083914;28;1927;-52
2021/03/25 00:24:27;;;;;;;;;;;12.40;59.40;;;;;;2079771;28;1900;-48
2021/03/25 00:25:46;;;;;;;;;;;12.40;59.30;;;;;;2089319;28;956;-52
2021/03/25 00:27:06;;;;;;;;;;;12.40;59.90;;;;;;2089445;28;762;-48
2021/03/25 00:28:25;;;;;;;;;;;12.40;59.90;;;;;;2089685;28;763;-52
2021/03/25 00:29:44;;;;;;;;;;;12.40;59.40;;;;;;2083625;28;1854;-48
2021/03/25 00:31:04;;;;;;;;;;;12.40;59.40;;;;;;2081041;28;731;-49
2021/03/25 00:32:23;;;;;;;;;;;12.40;59.40;;;;;;2081193;28;1375;-51
2021/03/25 00:33:42;;;;;;;;;;;12.40;59.40;;;;;;2072758;28;726;-52
2021/03/25 00:35:02;;;;;;;;;;;12.40;59.50;;;;;;2076960;28;1916;-50
2021/03/25 00:36:22;;;;;;;;;;;12.40;59.40;;;;;;2077689;28;718;-50
2021/03/25 00:37:41;;;;;;;;;;;12.40;59.50;;;;;;2081016;28;733;-50
2021/03/25 00:39:01;;;;;;;;;;;12.40;59.40;;;;;;2084289;28;1117;-48
2021/03/25 00:40:20;;;;;;;;;;;12.40;59.40;;;;;;2096206;28;1062;-49
2021/03/25 00:41:39;;;;;;;;;;;12.40;59.40;;;;;;2083521;28;1460;-49
2021/03/25 00:42:59;;;;;;;;;;;12.40;59.40;;;;;;2097615;28;780;-51
2021/03/25 00:44:18;;;;;;;;;;;12.40;59.50;;;;;;2097754;28;1910;-52
2021/03/25 00:45:41;;;;;;;;;;;12.40;60.20;;;;;;2080784;28;786;-50
2021/03/25 00:47:03;;;;;;;;;;;12.40;59.60;;;;;;2095632;28;973;-51
2021/03/25 00:48:23;;;;;;;;;;;12.40;59.60;;;;;;2097805;28;737;-50
2021/03/25 00:49:42;;;;;;;;;;;12.30;59.50;;;;;;2092417;28;1612;-51
2021/03/25 00:51:01;;;;;;;;;;;12.30;59.40;;;;;;2080673;28;729;-54
2021/03/25 00:52:20;;;;;;;;;;;12.30;59.50;;;;;;2086132;28;1364;-49
2021/03/25 00:53:39;;;;;;;;;;;12.30;60.10;;;;;;2088999;28;771;-53
2021/03/25 00:54:59;;;;;;;;;;;12.30;60.20;;;;;;2076351;28;1624;-52
2021/03/25 00:56:18;;;;;;;;;;;12.40;59.70;;;;;;2088815;28;787;-51
2021/03/25 00:57:37;;;;;;;;;;;12.30;59.60;;;;;;2080807;28;701;-50
2021/03/25 00:58:57;;;;;;;;;;;12.30;59.60;;;;;;2080825;28;714;-51
2021/03/25 01:00:18;;;;;;;;;;;12.30;59.70;;;;;;2077530;28;805;-49
2021/03/25 01:01:38;;;;;;;;;;;12.30;59.70;;;;;;2081677;28;1836;-51
2021/03/25 01:02:57;;;;;;;;;;;12.30;59.60;;;;;;2085766;28;797;-53
2021/03/25 01:04:16;;;;;;;;;;;12.30;59.60;;;;;;2085074;28;1906;-49
2021/03/25 01:05:35;;;;;;;;;;;12.30;59.70;;;;;;2085521;28;759;-53
2021/03/25 01:06:55;;;;;;;;;;;12.30;59.50;;;;;;2090534;28;1809;-50
2021/03/25 01:08:14;;;;;;;;;;;12.30;60.30;;;;;;2090303;28;776;-50
2021/03/25 01:09:34;;;;;;;;;;;12.30;60.30;;;;;;2080391;28;971;-52
2021/03/25 01:10:54;;;;;;;;;;;12.30;59.70;;;;;;2087124;28;785;-51
2021/03/25 01:12:14;;;;;;;;;;;12.30;59.60;;;;;;2089506;28;1377;-51
2021/03/25 01:13:35;;;;;;;;;;;12.30;59.60;;;;;;2091043;28;809;-50
2021/03/25 01:14:55;;;;;;;;;;;12.30;59.70;;;;;;2080907;28;1629;-51
2021/03/25 01:16:16;;;;;;;;;;;12.30;59.80;;;;;;2070904;28;788;-49
2021/03/25 01:17:37;;;;;;;;;;;12.30;59.80;;;;;;2077374;28;1880;-52
2021/03/25 01:18:56;;;;;;;;;;;12.30;59.80;;;;;;2087409;28;755;-52
2021/03/25 01:20:18;;;;;;;;;;;12.30;60.30;;;;;;2087004;28;750;-52
2021/03/25 01:21:37;;;;;;;;;;;12.30;59.70;;;;;;2087496;28;1430;-51
2021/03/25 01:22:57;;;;;;;;;;;12.30;59.90;;;;;;2086943;28;742;-52
2021/03/25 01:24:16;;;;;;;;;;;12.20;59.80;;;;;;2090702;28;1913;-49
2021/03/25 01:25:36;;;;;;;;;;;12.30;60.00;;;;;;2089632;28;880;-50
2021/03/25 01:26:56;;;;;;;;;;;12.20;59.80;;;;;;2078623;28;726;-50
2021/03/25 01:28:15;;;;;;;;;;;12.30;59.90;;;;;;2081978;28;1283;-52
2021/03/25 01:29:38;;;;;;;;;;;12.20;59.90;;;;;;2082526;28;745;-52
2021/03/25 01:30:57;;;;;;;;;;;12.20;59.80;;;;;;2085211;28;1870;-51
2021/03/25 01:32:16;;;;;;;;;;;12.30;59.90;;;;;;2086867;28;1419;-50
2021/03/25 01:33:36;;;;;;;;;;;12.20;60.00;;;;;;2087125;28;801;-52
2021/03/25 01:34:55;;;;;;;;;;;12.20;59.90;;;;;;2078488;28;762;-49
2021/03/25 01:36:15;;;;;;;;;;;12.20;59.80;;;;;;2078861;28;778;-50
2021/03/25 01:37:37;;;;;;;;;;;12.20;59.90;;;;;;2082990;28;2003;-50
2021/03/25 01:39:01;;;;;;;;;;;12.20;59.90;;;;;;2083355;28;809;-48
2021/03/25 01:40:25;;;;;;;;;;;12.20;60.00;;;;;;2094367;28;1086;-49
2021/03/25 01:41:44;;;;;;;;;;;12.20;60.00;;;;;;2080664;28;1368;-49
2021/03/25 01:43:04;;;;;;;;;;;12.20;60.00;;;;;;2084044;28;735;-52
2021/03/25 01:44:34;;;;;;;;;;;12.20;60.60;;;;;;2087033;28;1972;-52
2021/03/25 01:45:54;;;;;;;;;;;12.20;59.90;;;;;;2086044;28;1928;-51
2021/03/25 01:47:13;;;;;;;;;;;12.20;60.00;;;;;;2078872;28;719;-49
2021/03/25 01:48:36;;;;;;;;;;;12.20;60.10;;;;;;2086249;28;1359;-50
2021/03/25 01:49:57;;;;;;;;;;;12.20;60.00;;;;;;2089654;28;1499;-53
2021/03/25 01:51:16;;;;;;;;;;;12.20;59.90;;;;;;2081869;28;754;-51
2021/03/25 01:52:50;;;;;;;;;;;12.20;60.10;;;;;;2083730;28;732;-48
2021/03/25 01:54:10;;;;;;;;;;;12.20;60.00;;;;;;2080124;28;1628;-53
2021/03/25 01:55:39;;;;;;;;;;;12.20;60.20;;;;;;2080293;28;1760;-50
2021/03/25 01:57:14;;;;;;;;;;;12.20;60.10;;;;;;2073483;28;734;-49
2021/03/25 01:58:34;;;;;;;;;;;12.20;60.00;;;;;;2085608;28;1855;-50
2021/03/25 01:59:56;;;;;;;;;;;12.20;60.10;;;;;;2086887;28;775;-50
2021/03/25 02:01:15;;;;;;;;;;;12.20;60.20;;;;;;2086992;28;706;-51
2021/03/25 02:02:37;;;;;;;;;;;12.20;60.10;;;;;;2089787;28;758;-53
2021/03/25 02:04:22;;;;;;;;;;;12.20;60.10;;;;;;2081650;28;1902;-52
2021/03/25 02:06:18;;;;;;;;;;;12.20;60.20;;;;;;2072520;28;1530;-49
2021/03/25 02:07:39;;;;;;;;;;;12.20;60.30;;;;;;2089242;28;1795;-53
2021/03/25 02:08:59;;;;;;;;;;;12.10;60.10;;;;;;2072837;28;804;-51
2021/03/25 02:10:22;;;;;;;;;;;12.20;60.10;;;;;;2092504;28;1012;-53
2021/03/25 02:12:00;;;;;;;;;;;12.20;60.00;;;;;;2084064;28;1510;-54
2021/03/25 02:13:34;;;;;;;;;;;12.10;60.30;;;;;;2096077;28;795;-51
2021/03/25 02:15:16;;;;;;;;;;;12.10;60.70;;;;;;2087116;28;1533;-50
2021/03/25 02:16:42;;;;;;;;;;;12.10;60.10;;;;;;2089248;28;717;-49
2021/03/25 02:18:43;;;;;;;;;;;12.10;60.00;;;;;;2072388;28;1998;-51
2021/03/25 02:20:06;;;;;;;;;;;12.10;60.10;;;;;;2072643;28;824;-52
2021/03/25 02:21:39;;;;;;;;;;;12.10;60.80;;;;;;2079114;28;747;-54
2021/03/25 02:23:20;;;;;;;;;;;12.10;60.00;;;;;;2079927;28;763;-51
2021/03/25 02:24:46;;;;;;;;;;;12.10;60.30;;;;;;2073023;28;1621;-52
2021/03/25 02:26:18;;;;;;;;;;;12.10;60.20;;;;;;2079935;28;717;-51
2021/03/25 02:27:54;;;;;;;;;;;12.10;60.20;;;;;;2071646;28;769;-50
2021/03/25 02:29:13;;;;;;;;;;;12.10;60.20;;;;;;2078953;28;736;-51
2021/03/25 02:30:46;;;;;;;;;;;12.10;60.10;;;;;;2078400;28;764;-51
2021/03/25 02:32:13;;;;;;;;;;;12.10;60.20;;;;;;2081290;28;1387;-50
2021/03/25 02:33:32;;;;;;;;;;;12.10;60.00;;;;;;2081280;28;748;-53
2021/03/25 02:34:58;;;;;;;;;;;12.10;60.30;;;;;;2078225;28;1565;-50
2021/03/25 02:36:29;;;;;;;;;;;12.10;61.00;;;;;;2084140;28;1117;-50
2021/03/25 02:38:10;;;;;;;;;;;12.10;60.30;;;;;;2078013;28;747;-54
2021/03/25 02:39:39;;;;;;;;;;;12.10;60.20;;;;;;2090157;28;958;-51
2021/03/25 02:41:00;;;;;;;;;;;12.10;61.10;;;;;;2091372;28;1079;-49
2021/03/25 02:42:23;;;;;;;;;;;12.10;60.30;;;;;;2082899;28;1542;-49
2021/03/25 02:44:00;;;;;;;;;;;12.10;60.40;;;;;;2074397;28;1955;-50
2021/03/25 02:45:21;;;;;;;;;;;12.10;60.50;;;;;;2076766;28;908;-51
2021/03/25 02:46:53;;;;;;;;;;;12.10;60.40;;;;;;2079925;28;1584;-52
2021/03/25 02:48:13;;;;;;;;;;;12.10;60.40;;;;;;2091390;28;1373;-50
2021/03/25 02:49:35;;;;;;;;;;;12.10;60.60;;;;;;2094156;28;1132;-48
2021/03/25 02:50:56;;;;;;;;;;;12.10;60.50;;;;;;2096250;28;1124;-52
2021/03/25 02:52:23;;;;;;;;;;;12.10;60.60;;;;;;2084208;28;1424;-51
2021/03/25 02:53:49;;;;;;;;;;;12.10;60.40;;;;;;2084893;28;1147;-50
2021/03/25 02:55:11;;;;;;;;;;;12.10;60.40;;;;;;2078282;28;1491;-52
2021/03/25 02:56:37;;;;;;;;;;;12.00;60.30;;;;;;2091518;28;1216;-51
2021/03/25 02:58:03;;;;;;;;;;;12.10;60.40;;;;;;2094284;28;1128;-52
2021/03/25 02:59:33;;;;;;;;;;;12.00;60.20;;;;;;2086857;28;1223;-51
2021/03/25 03:01:06;;;;;;;;;;;12.00;60.20;;;;;;2083308;28;1021;-51
2021/03/25 03:02:28;;;;;;;;;;;12.00;60.40;;;;;;2093994;28;1479;-49
2021/03/25 03:04:01;;;;;;;;;;;12.00;60.30;;;;;;2090291;28;1909;-50
2021/03/25 03:05:31;;;;;;;;;;;12.00;60.40;;;;;;2087499;28;898;-51
2021/03/25 03:06:52;;;;;;;;;;;12.00;60.30;;;;;;2080621;28;1200;-50
2021/03/25 03:08:20;;;;;;;;;;;12.00;60.30;;;;;;2086596;28;1642;-51
2021/03/25 03:09:43;;;;;;;;;;;12.00;60.60;;;;;;2088929;28;1433;-51
2021/03/25 03:11:02;;;;;;;;;;;12.00;60.30;;;;;;2091928;28;1534;-50
2021/03/25 03:12:23;;;;;;;;;;;12.00;60.40;;;;;;2093217;28;1518;-49
2021/03/25 03:14:03;;;;;;;;;;;12.00;60.50;;;;;;2086146;28;1107;-52
2021/03/25 03:15:25;;;;;;;;;;;12.00;60.40;;;;;;2095182;28;1026;-49
2021/03/25 03:16:47;;;;;;;;;;;12.00;60.90;;;;;;2080460;28;1194;-54
2021/03/25 03:18:08;;;;;;;;;;;12.00;60.60;;;;;;2079394;28;870;-49
2021/03/25 03:19:38;;;;;;;;;;;12.00;60.60;;;;;;2077669;28;957;-50
2021/03/25 03:21:31;;;;;;;;;;;12.00;60.60;;;;;;2090231;28;1345;-51
2021/03/25 03:23:13;;;;;;;;;;;12.00;61.70;;;;;;2079290;28;1161;-50
2021/03/25 03:24:34;;;;;;;;;;;12.00;60.70;;;;;;2075317;28;1902;-50
2021/03/25 03:26:13;;;;;;;;;;;12.00;60.70;;;;;;2082647;28;1222;-50
2021/03/25 03:27:37;;;;;;;;;;;12.00;60.50;;;;;;2079940;28;1384;-50
2021/03/25 03:29:04;;;;;;;;;;;12.00;60.60;;;;;;2065589;28;1468;-52
2021/03/25 03:30:28;;;;;;;;;;;12.00;60.70;;;;;;2063882;28;1066;-50
2021/03/25 03:32:25;;;;;;;;;;;12.00;60.80;;;;;;2073977;28;1522;-52
2021/03/25 03:33:48;;;;;;;;;;;12.00;60.80;;;;;;2073961;28;1720;-51
2021/03/25 03:35:09;;;;;;;;;;;12.00;60.70;;;;;;2072388;28;1593;-51
2021/03/25 03:36:28;;;;;;;;;;;12.00;60.80;;;;;;2075743;28;1254;-50
2021/03/25 03:37:49;;;;;;;;;;;12.00;60.90;;;;;;2068273;28;1466;-50
2021/03/25 03:39:15;;;;;;;;;;;12.00;60.70;;;;;;2073600;28;2195;-51
2021/03/25 03:40:38;;;;;;;;;;;12.00;60.80;;;;;;2069125;28;1096;-49
2021/03/25 03:42:02;;;;;;;;;;;12.00;60.80;;;;;;2078918;28;1518;-50
2021/03/25 03:43:22;;;;;;;;;;;12.00;61.10;;;;;;2062747;28;1297;-52
2021/03/25 03:44:44;;;;;;;;;;;11.90;60.80;;;;;;2073230;28;1883;-49
2021/03/25 03:46:16;;;;;;;;;;;12.00;61.00;;;;;;2065309;28;1231;-50
2021/03/25 03:47:35;;;;;;;;;;;12.00;61.10;;;;;;2074252;28;1317;-49
2021/03/25 03:48:58;;;;;;;;;;;12.00;61.20;;;;;;2070487;28;1258;-51
2021/03/25 03:50:37;;;;;;;;;;;12.00;61.00;;;;;;2087448;28;1120;-51
2021/03/25 03:52:03;;;;;;;;;;;11.90;60.90;;;;;;2070565;28;1442;-48
2021/03/25 03:53:26;;;;;;;;;;;11.90;60.90;;;;;;2087806;28;1215;-49
2021/03/25 03:54:50;;;;;;;;;;;11.90;60.80;;;;;;2075625;28;1369;-51
2021/03/25 03:56:20;;;;;;;;;;;11.90;60.90;;;;;;2091581;28;1504;-49
2021/03/25 03:57:54;;;;;;;;;;;11.90;60.70;;;;;;2087499;28;1130;-49
2021/03/25 03:59:21;;;;;;;;;;;11.90;60.80;;;;;;2092816;28;1231;-49
2021/03/25 04:00:45;;;;;;;;;;;11.90;61.10;;;;;;2085140;28;1308;-50
2021/03/25 04:02:11;;;;;;;;;;;11.90;61.10;;;;;;2081716;28;1413;-53
2021/03/25 04:03:34;;;;;;;;;;;11.90;61.00;;;;;;2081279;28;1373;-50
2021/03/25 04:05:06;;;;;;;;;;;11.90;61.80;;;;;;2086962;28;1397;-49
2021/03/25 04:06:40;;;;;;;;;;;11.90;60.90;;;;;;2092415;28;1304;-50
2021/03/25 04:08:10;;;;;;;;;;;11.90;61.10;;;;;;2083320;28;1195;-50
2021/03/25 04:09:47;;;;;;;;;;;11.90;61.00;;;;;;2090184;28;1304;-50
2021/03/25 04:11:20;;;;;;;;;;;11.90;60.90;;;;;;2083658;28;1312;-49
2021/03/25 04:12:41;;;;;;;;;;;11.90;61.20;;;;;;2082878;28;1422;-49
2021/03/25 04:14:13;;;;;;;;;;;11.90;60.90;;;;;;2088664;28;1342;-54
2021/03/25 04:15:52;;;;;;;;;;;11.90;60.80;;;;;;2091594;28;1926;-55
2021/03/25 04:17:13;;;;;;;;;;;11.90;60.90;;;;;;2088880;28;1582;-51
2021/03/25 04:18:37;;;;;;;;;;;11.90;61.10;;;;;;2082306;28;1236;-51
2021/03/25 04:20:22;;;;;;;;;;;11.90;61.70;;;;;;2092191;28;1364;-54
2021/03/25 04:22:03;;;;;;;;;;;11.90;61.00;;;;;;2094638;28;1439;-49
2021/03/25 04:23:23;;;;;;;;;;;11.90;60.90;;;;;;2093559;28;1269;-51
2021/03/25 04:24:43;;;;;;;;;;;11.90;60.90;;;;;;2088094;28;1606;-50
2021/03/25 04:26:03;;;;;;;;;;;11.90;61.10;;;;;;2092111;28;1274;-50
2021/03/25 04:27:30;;;;;;;;;;;11.90;60.90;;;;;;2090349;28;1310;-55
2021/03/25 04:28:51;;;;;;;;;;;11.90;60.90;;;;;;2089549;28;1226;-51
2021/03/25 04:30:11;;;;;;;;;;;11.90;60.90;;;;;;2093520;28;1525;-50
2021/03/25 04:31:31;;;;;;;;;;;11.90;61.00;;;;;;2092209;28;1358;-51
2021/03/25 04:32:50;;;;;;;;;;;11.90;60.90;;;;;;2093618;28;1501;-47
2021/03/25 04:34:09;;;;;;;;;;;11.90;60.70;;;;;;2092588;28;1235;-49
2021/03/25 04:35:28;;;;;;;;;;;11.90;60.60;;;;;;2091922;28;1621;-51
2021/03/25 04:36:48;;;;;;;;;;;11.90;60.40;;;;;;2089163;28;1358;-48
2021/03/25 04:38:07;;;;;;;;;;;11.90;60.20;;;;;;2089348;28;1177;-49
2021/03/25 04:39:26;;;;;;;;;;;12.00;61.00;;;;;;2083471;28;1314;-50
2021/03/25 04:40:46;;;;;;;;;;;12.00;60.30;;;;;;2086107;28;1182;-54
2021/03/25 04:42:05;;;;;;;;;;;11.90;60.70;;;;;;2091389;28;1547;-50
2021/03/25 04:43:25;;;;;;;;;;;11.90;60.80;;;;;;2089697;28;1412;-51
2021/03/25 04:44:48;;;;;;;;;;;11.90;61.10;;;;;;2092131;28;1248;-49
2021/03/25 04:46:26;;;;;;;;;;;11.90;61.20;;;;;;2085007;28;1310;-52
2021/03/25 04:47:46;;;;;;;;;;;11.90;61.60;;;;;;2089673;28;1361;-50
2021/03/25 04:49:06;;;;;;;;;;;11.90;61.80;;;;;;2086357;28;1366;-52
2021/03/25 04:50:30;;;;;;;;;;;11.90;62.10;;;;;;2087175;28;1232;-53
2021/03/25 04:51:56;;;;;;;;;;;11.90;62.10;;;;;;2082652;28;1386;-52
2021/03/25 04:53:22;;;;;;;;;;;11.90;62.10;;;;;;2077980;28;1345;-52
2021/03/25 04:54:41;;;;;;;;;;;11.90;62.90;;;;;;2083674;28;1655;-50
2021/03/25 04:56:01;;;;;;;;;;;11.90;62.10;;;;;;2088908;28;1315;-50
2021/03/25 04:57:24;;;;;;;;;;;11.90;62.10;;;;;;2092586;28;1167;-48
2021/03/25 04:58:43;;;;;;;;;;;11.90;62.20;;;;;;2089929;28;1240;-48
2021/03/25 05:00:05;;;;;;;;;;;11.80;62.10;;;;;;2090651;28;1346;-47
2021/03/25 05:01:25;;;;;;;;;;;11.80;62.10;;;;;;2091726;28;1275;-48
2021/03/25 05:02:44;;;;;;;;;;;11.80;62.00;;;;;;2094042;28;1045;-50
2021/03/25 05:04:04;;;;;;;;;;;11.80;62.20;;;;;;2094560;28;2012;-48
2021/03/25 05:05:24;;;;;;;;;;;11.80;62.10;;;;;;2089361;28;1601;-50
2021/03/25 05:06:48;;;;;;;;;;;11.80;62.00;;;;;;2081668;28;1566;-50
2021/03/25 05:08:09;;;;;;;;;;;11.80;62.10;;;;;;2077279;28;1197;-53
2021/03/25 05:09:29;;;;;;;;;;;11.80;62.00;;;;;;2081817;28;1811;-52
2021/03/25 05:10:57;;;;;;;;;;;11.80;61.90;;;;;;2090411;28;1172;-48
2021/03/25 05:12:16;;;;;;;;;;;11.80;61.80;;;;;;2092228;28;1549;-49
2021/03/25 05:13:37;;;;;;;;;;;11.80;61.80;;;;;;2093829;28;1340;-52
2021/03/25 05:15:02;;;;;;;;;;;11.80;62.00;;;;;;2079422;28;1439;-51
2021/03/25 05:16:23;;;;;;;;;;;11.80;62.00;;;;;;2079811;28;1918;-48
2021/03/25 05:18:03;;;;;;;;;;;11.80;62.00;;;;;;2091217;28;1576;-49
2021/03/25 05:19:34;;;;;;;;;;;11.80;62.70;;;;;;2090728;28;2015;-50
2021/03/25 05:21:14;;;;;;;;;;;11.80;62.10;;;;;;2091359;28;992;-50
2021/03/25 05:22:36;;;;;;;;;;;11.80;61.90;;;;;;2090012;28;1543;-50
2021/03/25 05:23:59;;;;;;;;;;;11.80;61.80;;;;;;2086647;28;1902;-50
2021/03/25 05:25:25;;;;;;;;;;;11.80;61.90;;;;;;2086406;28;909;-50
2021/03/25 05:26:48;;;;;;;;;;;11.80;62.10;;;;;;2083624;28;1536;-50
2021/03/25 05:28:18;;;;;;;;;;;11.80;61.90;;;;;;2078717;28;956;-50
2021/03/25 05:29:38;;;;;;;;;;;11.80;62.50;;;;;;2086775;28;1327;-50
2021/03/25 05:30:57;;;;;;;;;;;11.80;61.90;;;;;;2086396;28;1305;-52
2021/03/25 05:32:17;;;;;;;;;;;11.80;61.80;;;;;;2090055;28;1410;-50
2021/03/25 05:33:37;;;;;;;;;;;11.80;62.70;;;;;;2088471;28;1344;-55
2021/03/25 05:34:57;;;;;;;;;;;11.80;61.90;;;;;;2083886;28;1262;-50
2021/03/25 05:36:16;;;;;;;;;;;11.80;61.90;;;;;;2078263;28;1363;-50
2021/03/25 05:37:35;;;;;;;;;;;11.80;61.70;;;;;;2086645;28;1220;-53
2021/03/25 05:38:55;;;;;;;;;;;11.80;61.70;;;;;;2081588;28;1552;-50
2021/03/25 05:40:20;;;;;;;;;;;11.80;61.90;;;;;;2082866;28;1356;-53
2021/03/25 05:41:59;;;;;;;;;;;11.80;61.60;;;;;;2090247;28;1522;-51
2021/03/25 05:43:37;;;;;;;;;;;11.80;62.00;;;;;;2089623;28;1365;-52
2021/03/25 05:45:09;;;;;;;;;;;11.80;61.20;;;;;;2086441;28;1595;-51
2021/03/25 05:46:31;;;;;;;;;;;11.80;61.80;;;;;;2089893;28;1541;-51
2021/03/25 05:47:56;;;;;;;;;;;11.80;62.30;;;;;;2089053;28;1675;-51
2021/03/25 05:49:34;;;;;;;;;;;11.80;62.30;;;;;;2091217;28;1426;-49
2021/03/25 05:50:57;;;;;;;;;;;11.80;62.70;;;;;;2089906;28;1291;-50
2021/03/25 05:52:20;;;;;;;;;;;11.80;62.90;;;;;;2087086;28;1552;-50
2021/03/25 05:53:42;;;;;;;;;;;11.80;63.00;;;;;;2085983;28;1151;-49
2021/03/25 05:55:30;;;;;;;;;;;11.80;63.90;;;;;;2084236;28;1869;-49
2021/03/25 05:57:08;;;;;;;;;;;11.80;63.10;;;;;;2090284;28;1287;-49
2021/03/25 05:58:47;;;;;;;;;;;11.70;63.20;;;;;;2090726;28;1313;-49
2021/03/25 06:00:09;;;;;;;;;;;11.70;63.10;;;;;;2090600;28;1147;-54
2021/03/25 06:01:34;;;;;;;;;;;11.70;63.10;;;;;;2093938;28;1207;-49
2021/03/25 06:02:58;;;;;;;;;;;11.70;63.10;;;;;;2089412;28;1326;-49
2021/03/25 06:04:24;;;;;;;;;;;11.70;63.10;;;;;;2080593;28;1914;-53
2021/03/25 06:05:43;;;;;;;;;;;11.70;63.10;;;;;;2079705;28;1369;-49
2021/03/25 06:07:05;;;;;;;;;;;11.70;63.10;;;;;;2086306;28;1236;-50
2021/03/25 06:08:36;;;;;;;;;;;11.70;63.00;;;;;;2086077;28;1299;-49
2021/03/25 06:10:00;;;;;;;;;;;11.70;63.20;;;;;;2088110;28;1343;-52
2021/03/25 06:11:26;;;;;;;;;;;11.70;63.10;;;;;;2088574;28;1166;-49
2021/03/25 06:13:00;;;;;;;;;;;11.70;63.10;;;;;;2092645;28;1023;-49
2021/03/25 06:14:29;;;;;;;;;;;11.70;63.20;;;;;;2092398;28;1065;-51
2021/03/25 06:16:06;;;;;;;;;;;11.70;63.10;;;;;;2084048;28;1371;-50
2021/03/25 06:17:34;;;;;;;;;;;11.70;63.10;;;;;;2088846;28;1178;-50
2021/03/25 06:19:22;;;;;;;;;;;11.70;63.00;;;;;;2080305;28;1070;-48
2021/03/25 06:20:44;;;;;;;;;;;11.70;63.80;;;;;;2085576;28;1099;-48
2021/03/25 06:22:39;;;;;;;;;;;11.70;62.90;;;;;;2087338;28;1444;-50
2021/03/25 06:24:00;;;;;;;;;;;11.70;63.00;;;;;;2088485;28;1965;-47
2021/03/25 06:25:22;;;;;;;;;;;11.70;62.80;;;;;;2091296;28;1731;-47
2021/03/25 06:26:50;;;;;;;;;;;11.70;63.00;;;;;;2087202;28;1177;-47
2021/03/25 06:28:21;;;;;;;;;;;11.70;62.90;;;;;;2085797;28;1284;-46
2021/03/25 06:29:43;;;;;;;;;;;11.70;62.60;;;;;;2088488;28;1295;-46
2021/03/25 06:31:03;;;;;;;;;;;11.70;62.30;;;;;;2090230;28;1314;-47
2021/03/25 06:32:40;;;;;;;;;;;11.70;62.10;;;;;;2092894;28;1400;-48
2021/03/25 06:33:59;;;;;;;;;;;11.70;62.50;;;;;;2090626;28;1635;-48
2021/03/25 06:35:38;;;;;;;;;;;11.70;64.00;;;;;;2092200;28;1528;-49
2021/03/25 06:36:59;;;;;;;;;;;11.70;64.20;;;;;;2092508;28;1425;-47
2021/03/25 06:38:18;;;;;;;;;;;11.70;63.70;;;;;;2090353;28;1179;-50
2021/03/25 06:39:46;;;;;;;;;;;11.70;63.70;;;;;;2092784;28;1578;-49
2021/03/25 06:41:10;;;;;;;;;;;11.70;63.80;;;;;;2090445;28;1480;-50
2021/03/25 06:42:40;;;;;;;;;;;11.70;64.00;;;;;;2082229;28;1542;-49
2021/03/25 06:44:09;;;;;;;;;;;11.70;64.00;;;;;;2086132;28;1953;-47
2021/03/25 06:45:32;;;;;;;;;;;11.70;64.00;;;;;;2087273;28;1723;-48
2021/03/25 06:46:58;;;;;;;;;;;11.70;64.00;;;;;;2088073;28;1430;-48
2021/03/25 06:48:18;;;;;;;;;;;11.70;63.90;;;;;;2091104;28;1414;-47
2021/03/25 06:49:40;;;;;;;;;;;11.70;63.90;;;;;;2090747;28;1243;-52
2021/03/25 06:50:59;;;;;;;;;;;11.70;64.70;;;;;;2089404;28;1410;-47
2021/03/25 06:52:25;;;;;;;;;;;11.70;63.90;;;;;;2087181;28;1408;-47
2021/03/25 06:53:44;;;;;;;;;;;11.60;63.90;;;;;;2088527;28;1842;-47
2021/03/25 06:55:06;;;;;;;;;;;11.70;64.00;;;;;;2089734;28;1490;-46
2021/03/25 06:56:30;;;;;;;;;;;11.70;64.10;;;;;;2079656;28;1093;-47
2021/03/25 06:57:51;;;;;;;;;;;11.60;63.90;;;;;;2079942;28;1271;-47
2021/03/25 06:59:17;;;;;;;;;;;11.60;63.70;;;;;;2087165;28;1364;-47
2021/03/25 07:00:39;;;;;;;;;;;11.70;63.80;;;;;;2084246;28;1349;-47
2021/03/25 07:02:07;;;;;;;;;;;11.60;63.70;;;;;;2078679;28;1550;-48
2021/03/25 07:03:26;;;;;;;;;;;11.60;63.70;;;;;;2087540;28;1310;-49
2021/03/25 07:04:46;;;;;;;;;;;11.60;63.80;;;;;;2091832;28;1215;-48
2021/03/25 07:06:05;;;;;;;;;;;11.60;63.80;;;;;;2090918;28;1338;-49
2021/03/25 07:07:27;;;;;;;;;;;11.60;63.70;;;;;;2083283;28;1153;-50
2021/03/25 07:08:46;;;;;;;;;;;11.70;63.60;;;;;;2085995;28;1630;-47
2021/03/25 07:10:06;;;;;;;;;;;11.60;63.60;;;;;;2086530;28;1466;-47
2021/03/25 07:11:26;;;;;;;;;;;11.60;63.60;;;;;;2088389;28;1165;-48
2021/03/25 07:12:46;;;;;;;;;;;11.60;63.50;;;;;;2091455;28;1062;-48
2021/03/25 07:14:07;;;;;;;;;;;11.70;63.60;;;;;;2087281;28;1148;-49
2021/03/25 07:15:26;;;;;;;;;;;11.70;63.30;;;;;;2080638;28;1545;-48
2021/03/25 07:16:46;;;;;;;;;;;11.70;63.20;;;;;;2090859;28;1322;-47
2021/03/25 07:18:05;;;;;;;;;;;11.70;63.10;;;;;;2088668;28;1917;-46
2021/03/25 07:19:25;;;;;;;;;;;11.70;62.90;;;;;;2087560;28;932;-49
2021/03/25 07:20:44;;;;;;;;;;;11.80;62.70;;;;;;2077571;28;1378;-50
2021/03/25 07:22:15;;;;;;;;;;;11.90;62.60;;;;;;2091092;28;1434;-50
2021/03/25 07:23:42;;;;;;;;;;;11.90;62.20;;;;;;2082430;28;1747;-48
2021/03/25 07:25:21;;;;;;;;;;;12.00;61.80;;;;;;2084147;28;1348;-48
2021/03/25 07:26:43;;;;;;;;;;;12.00;61.40;;;;;;2084657;28;2408;-48
2021/03/25 07:28:03;;;;;;;;;;;12.10;61.10;;;;;;2079744;28;1550;-48
2021/03/25 07:29:23;;;;;;;;;;;12.10;61.20;;;;;;2079932;28;1176;-48
2021/03/25 07:30:45;;;;;;;;;;;12.20;62.00;;;;;;2081903;28;766;-48
2021/03/25 07:32:04;;;;;;;;;;;12.30;61.60;;;;;;2086406;28;1350;-49
2021/03/25 07:33:24;;;;;;;;;;;12.30;61.50;;;;;;2089439;28;740;-50
2021/03/25 07:34:50;;;;;;;;;;;12.40;61.50;;;;;;2089438;28;1017;-49
2021/03/25 07:36:13;;;;;;;;;;;12.40;61.20;;;;;;2086965;28;748;-46
2021/03/25 07:37:36;;;;;;;;;;;12.50;60.90;;;;;;2086900;28;726;-48
2021/03/25 07:38:59;;;;;;;;;;;12.60;61.10;;;;;;2086732;28;736;-48
2021/03/25 07:40:37;;;;;;;;;;;12.70;60.00;;;;;;2086743;28;713;-53
2021/03/25 07:41:58;;;;;;;;;;;12.70;59.60;;;;;;2088528;28;1385;-49
2021/03/25 07:43:22;;;;;;;;;;;12.80;59.80;;;;;;2089768;28;848;-49
2021/03/25 07:44:42;;;;;;;;;;;12.90;59.10;;;;;;2089878;28;1910;-47
2021/03/25 07:46:07;;;;;;;;;;;12.90;58.70;;;;;;2081327;28;727;-49
2021/03/25 07:47:31;;;;;;;;;;;13.00;58.60;;;;;;2087194;28;981;-48
2021/03/25 07:49:16;;;;;;;;;;;13.10;58.80;;;;;;2086740;28;1030;-47
2021/03/25 07:50:36;;;;;;;;;;;13.10;58.00;;;;;;2083364;28;1040;-48
2021/03/25 07:51:56;;;;;;;;;;;13.20;58.30;;;;;;2089292;28;1397;-49
2021/03/25 07:53:15;;;;;;;;;;;13.30;57.70;;;;;;2091209;28;759;-47
2021/03/25 07:54:35;;;;;;;;;;;13.30;57.50;;;;;;2094785;28;1323;-49
2021/03/25 07:56:05;;;;;;;;;;;13.30;57.40;;;;;;2097993;28;960;-46
2021/03/25 07:57:25;;;;;;;;;;;13.30;57.40;;;;;;2089324;28;792;-49
2021/03/25 07:58:45;;;;;;;;;;;13.30;57.30;;;;;;2091476;28;715;-49
2021/03/25 08:00:13;;;;;;;;;;;13.30;57.40;;;;;;2094473;28;768;-49
2021/03/25 08:01:32;;;;;;;;;;;13.30;57.40;;;;;;2097886;28;750;-49
2021/03/25 08:03:10;;;;;;;;;;;13.40;57.40;;;;;;2098313;28;736;-48
2021/03/25 08:04:30;;;;;;;;;;;13.30;57.30;;;;;;2097469;28;1961;-49
2021/03/25 08:05:50;;;;;;;;;;;13.40;57.30;;;;;;2085643;28;794;-48
2021/03/25 08:07:09;;;;;;;;;;;13.40;57.20;;;;;;2091119;28;736;-48
2021/03/25 08:08:32;;;;;;;;;;;13.40;57.10;;;;;;2094428;28;761;-48
2021/03/25 08:09:55;;;;;;;;;;;13.50;57.00;;;;;;2097523;28;708;-48
2021/03/25 08:11:15;;;;;;;;;;;13.60;57.00;;;;;;2089472;28;734;-48
2021/03/25 08:12:35;;;;;;;;;;;13.60;56.70;;;;;;2091422;28;1393;-49
2021/03/25 08:14:03;;;;;;;;;;;13.70;56.60;;;;;;2094047;28;804;-48
2021/03/25 08:15:24;;;;;;;;;;;13.70;56.40;;;;;;2097199;28;751;-46
2021/03/25 08:16:44;;;;;;;;;;;13.80;56.30;;;;;;2099109;28;753;-47
2021/03/25 08:18:09;;;;;;;;;;;13.80;56.10;;;;;;2095987;28;797;-47
2021/03/25 08:19:35;;;;;;;;;;;13.90;56.10;;;;;;2099026;28;1122;-49
2021/03/25 08:20:57;;;;;;;;;;;13.90;55.90;;;;;;2089991;28;996;-49